createdAt,value
2023-01-01T00:00:19.343Z,99.90
2023-01-01T00:02:46.616Z,99.90
2023-01-01T00:05:13.849Z,99.90
2023-01-01T00:07:41.373Z,99.90
2023-01-01T00:10:29.306Z,99.90
2023-01-01T00:13:00.185Z,99.90
2023-01-01T00:15:28.316Z,99.90
2023-01-01T00:17:56.023Z,99.90
2023-01-01T00:20:23.999Z,99.90
2023-01-01T00:22:55.860Z,99.90
2023-01-01T00:25:24.346Z,99.90
2023-01-01T00:27:51.883Z,99.90
2023-01-01T00:30:19.506Z,99.90
2023-01-01T00:32:55.538Z,99.90
2023-01-01T00:35:27.244Z,99.90
2023-01-01T00:37:55.174Z,99.90
2023-01-01T00:40:23.621Z,99.90
2023-01-01T00:42:50.913Z,99.90
2023-01-01T00:45:22.631Z,99.90
2023-01-01T00:47:51.852Z,99.90
2023-01-01T00:50:20.640Z,99.90
2023-01-01T00:52:49.527Z,99.90
2023-01-01T00:55:16.940Z,99.90
2023-01-01T00:57:44.185Z,99.90
2023-01-01T01:00:12.260Z,99.90
2023-01-01T01:02:39.746Z,99.90
2023-01-01T01:05:07.632Z,99.90
2023-01-01T01:07:38.531Z,99.90
2023-01-01T01:10:07.036Z,99.90
2023-01-01T01:12:35.612Z,99.90
2023-01-01T01:15:04.539Z,99.90
2023-01-01T01:17:32.073Z,99.90
2023-01-01T01:19:59.921Z,99.90
2023-01-01T01:22:29.072Z,99.90
2023-01-01T01:24:57.478Z,99.90
2023-01-01T01:27:24.892Z,99.90
2023-01-01T01:29:53.037Z,99.90
2023-01-01T01:32:20.996Z,99.90
2023-01-01T01:34:48.186Z,99.90
2023-01-01T01:37:15.452Z,99.90
2023-01-01T01:39:42.651Z,99.90
2023-01-01T01:42:16.878Z,99.90
2023-01-01T01:44:48.051Z,99.90
2023-01-01T01:47:50.721Z,99.90
2023-01-01T01:50:31.968Z,99.90
2023-01-01T01:53:09.948Z,99.90
2023-01-01T01:55:41.527Z,99.90
2023-01-01T01:58:11.112Z,99.90
2023-01-01T02:00:38.357Z,99.90
2023-01-01T02:03:12.360Z,99.90
2023-01-01T02:05:41.205Z,99.90
2023-01-01T02:08:09.799Z,99.90
2023-01-01T02:10:40.738Z,99.90
2023-01-01T02:13:08.072Z,99.90
2023-01-01T02:15:51.628Z,99.90
2023-01-01T02:18:25.573Z,99.90
2023-01-01T02:21:08.116Z,99.90
2023-01-01T02:23:49.570Z,99.90
2023-01-01T02:26:38.959Z,99.90
2023-01-01T02:29:10.952Z,99.90
2023-01-01T02:31:47.798Z,99.90
2023-01-01T02:34:20.003Z,99.90
2023-01-01T02:36:52.024Z,99.90
2023-01-01T02:39:22.632Z,99.90
2023-01-01T02:41:54.471Z,99.90
2023-01-01T02:44:24.908Z,99.90
2023-01-01T02:46:52.497Z,99.90
2023-01-01T02:49:20.076Z,99.90
2023-01-01T02:51:59.088Z,99.90
2023-01-01T02:54:49.432Z,99.90
2023-01-01T02:57:41.244Z,99.90
2023-01-01T03:00:29.379Z,99.90
2023-01-01T03:03:15.944Z,99.90
2023-01-01T03:06:13.706Z,99.90
2023-01-01T03:08:49.550Z,99.90
2023-01-01T03:11:20.765Z,99.90
2023-01-01T03:14:00.983Z,99.90
2023-01-01T03:16:36.331Z,99.90
2023-01-01T03:19:12.994Z,99.90
2023-01-01T03:21:47.369Z,99.90
2023-01-01T03:24:31.145Z,99.90
2023-01-01T03:27:03.888Z,99.90
2023-01-01T03:29:36.858Z,99.90
2023-01-01T03:32:07.240Z,99.90
2023-01-01T03:34:41.454Z,99.90
2023-01-01T03:37:15.485Z,99.90
2023-01-01T03:39:51.070Z,99.90
2023-01-01T03:42:38.113Z,99.90
2023-01-01T03:45:09.409Z,99.90
2023-01-01T03:47:37.266Z,99.90
2023-01-01T03:50:06.489Z,99.90
2023-01-01T03:52:51.125Z,99.90
2023-01-01T03:55:41.965Z,99.90
2023-01-01T03:58:27.291Z,99.90
2023-01-01T04:01:09.587Z,99.90
2023-01-01T04:03:39.429Z,99.90
2023-01-01T04:06:07.624Z,99.90
2023-01-01T04:08:35.903Z,99.90
2023-01-01T04:11:30.278Z,99.90
2023-01-01T04:13:57.449Z,99.90
2023-01-01T04:16:24.638Z,99.90
2023-01-01T04:18:51.892Z,99.90
2023-01-01T04:21:19.032Z,99.90
2023-01-01T04:23:46.184Z,99.90
2023-01-01T04:26:16.600Z,99.90
2023-01-01T04:28:44.116Z,99.90
2023-01-01T04:31:11.778Z,99.90
2023-01-01T04:33:39.035Z,99.90
2023-01-01T04:36:08.779Z,99.90
2023-01-01T04:38:37.332Z,99.90
2023-01-01T04:41:05.533Z,99.90
2023-01-01T04:43:32.776Z,99.90
2023-01-01T04:46:02.644Z,99.90
2023-01-01T04:48:31.128Z,99.90
2023-01-01T04:51:00.988Z,99.90
2023-01-01T04:53:35.025Z,99.90
2023-01-01T04:56:07.475Z,99.90
2023-01-01T04:58:36.628Z,99.90
2023-01-01T05:01:04.938Z,99.90
2023-01-01T05:03:33.300Z,99.90
2023-01-01T05:06:09.049Z,99.90
2023-01-01T05:08:38.112Z,99.90
2023-01-01T05:11:12.079Z,99.90
2023-01-01T05:13:45.384Z,99.90
2023-01-01T05:16:16.107Z,99.90
2023-01-01T05:18:44.517Z,99.90
2023-01-01T05:21:14.977Z,99.90
2023-01-01T05:23:42.565Z,99.90
2023-01-01T05:26:17.916Z,99.90
2023-01-01T05:28:45.929Z,99.90
2023-01-01T05:31:16.145Z,99.90
2023-01-01T05:33:43.882Z,99.90
2023-01-01T05:36:18.939Z,99.90
2023-01-01T05:38:46.715Z,99.90
2023-01-01T05:41:15.463Z,99.90
2023-01-01T05:43:43.018Z,99.90
2023-01-01T05:46:16.542Z,99.90
2023-01-01T05:48:44.481Z,99.90
2023-01-01T05:51:14.307Z,99.90
2023-01-01T05:53:41.917Z,99.90
2023-01-01T05:56:09.085Z,99.90
2023-01-01T05:58:36.715Z,99.90
2023-01-01T06:01:16.388Z,99.90
2023-01-01T06:03:44.544Z,99.90
2023-01-01T06:06:14.580Z,99.90
2023-01-01T06:08:42.106Z,99.90
2023-01-01T06:11:12.610Z,99.90
2023-01-01T06:13:39.755Z,99.90
2023-01-01T06:16:07.378Z,99.90
2023-01-01T06:18:36.114Z,99.90
2023-01-01T06:21:07.035Z,99.90
2023-01-01T06:23:34.425Z,99.90
2023-01-01T06:26:06.412Z,99.90
2023-01-01T06:28:33.787Z,99.90
2023-01-01T06:31:03.056Z,99.90
2023-01-01T06:33:31.280Z,99.90
2023-01-01T06:35:58.773Z,99.90
2023-01-01T06:38:26.059Z,99.90
2023-01-01T06:40:58.354Z,99.90
2023-01-01T06:43:26.074Z,99.90
2023-01-01T06:46:05.046Z,99.90
2023-01-01T06:48:34.805Z,99.90
2023-01-01T06:51:08.450Z,99.90
2023-01-01T06:53:35.951Z,99.90
2023-01-01T06:56:03.339Z,99.90
2023-01-01T06:58:30.931Z,99.90
2023-01-01T07:01:11.635Z,99.90
2023-01-01T07:03:39.974Z,99.90
2023-01-01T07:06:08.879Z,99.90
2023-01-01T07:08:36.687Z,99.90
2023-01-01T07:11:04.382Z,99.90
2023-01-01T07:13:32.258Z,99.90
2023-01-01T07:16:00.499Z,99.90
2023-01-01T07:18:28.086Z,99.90
2023-01-01T07:20:58.023Z,99.90
2023-01-01T07:23:26.436Z,99.90
2023-01-01T07:25:54.816Z,99.90
2023-01-01T07:28:23.199Z,99.90
2023-01-01T07:30:52.330Z,99.90
2023-01-01T07:33:21.859Z,99.90
2023-01-01T07:35:49.442Z,99.90
2023-01-01T07:38:16.910Z,99.90
2023-01-01T07:40:44.206Z,99.90
2023-01-01T07:43:14.645Z,99.90
2023-01-01T07:45:41.892Z,99.90
2023-01-01T07:48:14.695Z,99.90
2023-01-01T07:50:42.970Z,99.90
2023-01-01T07:53:11.323Z,99.90
2023-01-01T07:55:38.655Z,99.90
2023-01-01T07:58:05.850Z,99.90
2023-01-01T08:00:33.625Z,99.90
2023-01-01T08:03:00.976Z,99.90
2023-01-01T08:05:28.283Z,99.90
2023-01-01T08:07:55.970Z,99.90
2023-01-01T08:10:23.598Z,99.90
2023-01-01T08:12:50.843Z,99.90
2023-01-01T08:15:18.126Z,99.90
2023-01-01T08:17:47.228Z,99.90
2023-01-01T08:20:14.784Z,99.90
2023-01-01T08:22:42.003Z,99.90
2023-01-01T08:25:09.538Z,99.90
2023-01-01T08:27:38.013Z,99.90
2023-01-01T08:30:06.785Z,99.90
2023-01-01T08:32:34.006Z,99.90
2023-01-01T08:35:01.554Z,99.90
2023-01-01T08:37:28.788Z,99.90
2023-01-01T08:39:56.260Z,99.90
2023-01-01T08:42:23.411Z,99.90
2023-01-01T08:44:51.126Z,99.90
2023-01-01T08:47:20.836Z,99.90
2023-01-01T08:49:48.108Z,99.90
2023-01-01T08:52:16.088Z,99.90
2023-01-01T08:54:43.487Z,99.90
2023-01-01T08:57:11.661Z,99.90
2023-01-01T08:59:38.848Z,99.90
2023-01-01T09:02:07.318Z,99.90
2023-01-01T09:04:35.221Z,99.90
2023-01-01T09:07:02.375Z,99.90
2023-01-01T09:09:31.796Z,99.90
2023-01-01T09:12:06.015Z,99.90
2023-01-01T09:14:34.747Z,99.90
2023-01-01T09:17:02.581Z,99.90
2023-01-01T09:19:30.073Z,99.90
2023-01-01T09:21:57.676Z,99.90
2023-01-01T09:24:25.497Z,99.90
2023-01-01T09:26:52.730Z,99.90
2023-01-01T09:29:21.615Z,99.90
2023-01-01T09:31:50.156Z,99.90
2023-01-01T09:34:18.982Z,99.90
2023-01-01T09:36:46.565Z,99.90
2023-01-01T09:39:15.548Z,99.90
2023-01-01T09:41:52.678Z,99.90
2023-01-01T09:44:46.743Z,99.90
2023-01-01T09:47:39.481Z,99.90
2023-01-01T09:50:16.981Z,99.90
2023-01-01T09:52:56.805Z,99.90
2023-01-01T09:55:28.893Z,99.90
2023-01-01T09:57:57.146Z,99.90
2023-01-01T10:00:24.557Z,99.90
2023-01-01T10:03:20.511Z,99.90
2023-01-01T10:06:24.749Z,99.90
2023-01-01T10:09:05.898Z,99.90
2023-01-01T10:11:57.979Z,99.90
2023-01-01T10:14:38.987Z,99.90
2023-01-01T10:17:32.724Z,99.90
2023-01-01T10:20:15.146Z,99.90
2023-01-01T10:22:46.981Z,99.90
2023-01-01T10:25:30.318Z,99.90
2023-01-01T10:28:33.004Z,99.90
2023-01-01T10:31:18.839Z,99.90
2023-01-01T10:33:48.373Z,99.30
2023-01-01T10:36:19.360Z,99.10
2023-01-01T10:38:48.837Z,98.70
2023-01-01T10:41:19.824Z,98.40
2023-01-01T10:43:48.252Z,97.70
2023-01-01T10:46:26.035Z,97.90
2023-01-01T10:49:12.519Z,98.40
2023-01-01T10:51:46.823Z,97.70
2023-01-01T10:54:32.198Z,98.00
2023-01-01T10:57:00.577Z,98.00
2023-01-01T10:59:40.348Z,96.60
2023-01-01T11:02:25.898Z,95.70
2023-01-01T11:05:21.419Z,96.00
2023-01-01T11:07:49.985Z,94.50
2023-01-01T11:10:23.833Z,93.90
2023-01-01T11:13:09.765Z,93.60
2023-01-01T11:15:42.852Z,93.50
2023-01-01T11:18:22.997Z,92.60
2023-01-01T11:20:55.842Z,92.10
2023-01-01T11:23:35.191Z,91.40
2023-01-01T11:26:24.465Z,91.50
2023-01-01T11:29:05.593Z,90.60
2023-01-01T11:31:38.807Z,90.70
2023-01-01T11:34:24.539Z,90.30
2023-01-01T11:36:52.114Z,90.50
2023-01-01T11:39:26.921Z,90.40
2023-01-01T11:41:56.254Z,90.50
2023-01-01T11:44:40.330Z,90.70
2023-01-01T11:47:19.704Z,91.30
2023-01-01T11:49:53.456Z,91.90
2023-01-01T11:52:37.926Z,92.20
2023-01-01T11:55:22.109Z,92.60
2023-01-01T11:58:01.325Z,92.70
2023-01-01T12:00:34.251Z,92.60
2023-01-01T12:03:12.756Z,92.60
2023-01-01T12:05:56.092Z,92.20
2023-01-01T12:08:35.053Z,91.90
2023-01-01T12:11:16.457Z,91.70
2023-01-01T12:14:29.561Z,90.60
2023-01-01T12:17:23.518Z,90.20
2023-01-01T12:20:21.347Z,90.20
2023-01-01T12:22:49.580Z,90.00
2023-01-01T12:25:19.692Z,89.60
2023-01-01T12:28:16.391Z,90.00
2023-01-01T12:31:16.256Z,90.30
2023-01-01T12:33:57.453Z,90.10
2023-01-01T12:36:53.951Z,90.00
2023-01-01T12:39:30.509Z,90.00
2023-01-01T12:42:29.349Z,90.90
2023-01-01T12:45:17.698Z,90.70
2023-01-01T12:48:05.070Z,92.70
2023-01-01T12:50:59.884Z,93.30
2023-01-01T12:54:14.762Z,93.40
2023-01-01T12:56:56.929Z,92.90
2023-01-01T12:59:31.984Z,93.50
2023-01-01T13:02:03.171Z,93.50
2023-01-01T13:04:30.916Z,94.40
2023-01-01T13:07:08.747Z,94.90
2023-01-01T13:09:38.658Z,93.90
2023-01-01T13:12:17.434Z,94.20
2023-01-01T13:14:46.388Z,94.00
2023-01-01T13:17:20.597Z,94.10
2023-01-01T13:19:59.440Z,94.40
2023-01-01T13:22:27.112Z,94.40
2023-01-01T13:25:18.140Z,94.30
2023-01-01T13:27:57.690Z,94.00
2023-01-01T13:30:37.300Z,94.10
2023-01-01T13:33:32.292Z,94.00
2023-01-01T13:36:08.459Z,94.60
2023-01-01T13:38:59.980Z,94.90
2023-01-01T13:41:37.089Z,95.80
2023-01-01T13:44:04.359Z,96.40
2023-01-01T13:46:44.229Z,96.50
2023-01-01T13:49:21.177Z,96.80
2023-01-01T13:52:31.533Z,97.30
2023-01-01T13:55:20.686Z,97.10
2023-01-01T13:58:15.526Z,97.40
2023-01-01T14:00:57.174Z,97.40
2023-01-01T14:03:27.154Z,97.40
2023-01-01T14:06:01.708Z,97.20
2023-01-01T14:08:34.829Z,97.20
2023-01-01T14:11:16.799Z,97.60
2023-01-01T14:13:44.011Z,97.60
2023-01-01T14:16:14.003Z,97.70
2023-01-01T14:18:50.390Z,98.10
2023-01-01T14:21:22.489Z,98.30
2023-01-01T14:23:52.637Z,98.30
2023-01-01T14:26:25.398Z,98.50
2023-01-01T14:28:57.583Z,98.70
2023-01-01T14:31:30.059Z,99.10
2023-01-01T14:33:57.844Z,99.30
2023-01-01T14:36:27.664Z,99.50
2023-01-01T14:38:57.203Z,99.70
2023-01-01T14:41:31.229Z,99.90
2023-01-01T14:44:10.551Z,99.90
2023-01-01T14:46:50.201Z,99.90
2023-01-01T14:49:31.029Z,99.90
2023-01-01T14:52:03.277Z,99.90
2023-01-01T14:54:34.374Z,99.90
2023-01-01T14:57:02.345Z,99.90
2023-01-01T14:59:33.716Z,99.90
2023-01-01T15:02:14.236Z,99.90
2023-01-01T15:04:42.227Z,99.90
2023-01-01T15:07:22.602Z,99.90
2023-01-01T15:09:51.791Z,99.90
2023-01-01T15:12:20.285Z,99.90
2023-01-01T15:15:31.428Z,99.90
2023-01-01T15:17:58.678Z,99.90
2023-01-01T15:20:26.058Z,99.90
2023-01-01T15:22:55.094Z,99.90
2023-01-01T15:25:24.437Z,99.90
2023-01-01T15:27:55.542Z,99.90
2023-01-01T15:30:30.349Z,99.90
2023-01-01T15:33:09.738Z,99.90
2023-01-01T15:35:38.029Z,99.90
2023-01-01T15:38:17.239Z,99.90
2023-01-01T15:40:49.388Z,99.90
2023-01-01T15:43:22.635Z,99.90
2023-01-01T15:46:17.658Z,99.90
2023-01-01T15:48:53.320Z,99.90
2023-01-01T15:51:24.289Z,99.90
2023-01-01T15:53:59.493Z,99.90
2023-01-01T15:56:30.170Z,99.90
2023-01-01T15:59:05.353Z,99.90
2023-01-01T16:01:38.686Z,99.90
2023-01-01T16:04:29.022Z,99.90
2023-01-01T16:06:58.408Z,99.90
2023-01-01T16:09:25.743Z,99.90
2023-01-01T16:11:55.789Z,99.90
2023-01-01T16:14:23.850Z,99.90
2023-01-01T16:16:57.228Z,99.90
2023-01-01T16:19:25.138Z,99.90
2023-01-01T16:21:52.873Z,99.90
2023-01-01T16:24:20.589Z,99.90
2023-01-01T16:26:48.573Z,99.90
2023-01-01T16:29:16.656Z,99.90
2023-01-01T16:31:47.331Z,99.90
2023-01-01T16:34:15.033Z,99.90
2023-01-01T16:36:44.099Z,99.90
2023-01-01T16:39:12.868Z,99.90
2023-01-01T16:41:42.464Z,99.90
2023-01-01T16:44:15.251Z,99.90
2023-01-01T16:46:42.997Z,99.90
2023-01-01T16:49:10.271Z,99.90
2023-01-01T16:51:43.261Z,99.90
2023-01-01T16:54:11.651Z,99.90
2023-01-01T16:56:39.574Z,99.90
2023-01-01T16:59:06.772Z,99.90
2023-01-01T17:01:34.130Z,99.90
2023-01-01T17:04:02.013Z,99.90
2023-01-01T17:06:29.473Z,99.90
2023-01-01T17:08:58.307Z,99.90
2023-01-01T17:11:25.511Z,99.90
2023-01-01T17:13:52.920Z,99.90
2023-01-01T17:16:27.075Z,99.90
2023-01-01T17:21:43.809Z,99.90
2023-01-01T17:24:11.004Z,99.90
2023-01-01T17:26:38.254Z,99.90
2023-01-01T17:29:07.457Z,99.90
2023-01-01T17:31:35.083Z,99.90
2023-01-01T17:34:02.608Z,99.90
2023-01-01T17:36:30.825Z,99.90
2023-01-01T17:38:58.510Z,99.90
2023-01-01T17:41:25.848Z,99.90
2023-01-01T17:43:53.073Z,99.90
2023-01-01T17:46:22.435Z,99.90
2023-01-01T17:48:50.494Z,99.90
2023-01-01T17:51:18.848Z,99.90
2023-01-01T17:53:46.792Z,99.90
2023-01-01T17:56:16.723Z,99.90
2023-01-01T17:58:46.552Z,99.90
2023-01-01T18:01:23.408Z,99.90
2023-01-01T18:03:56.297Z,99.90
2023-01-01T18:06:24.698Z,99.90
2023-01-01T18:08:59.871Z,99.90
2023-01-01T18:11:29.458Z,99.90
2023-01-01T18:13:57.552Z,99.90
2023-01-01T18:16:25.161Z,99.90
2023-01-01T18:18:52.956Z,99.90
2023-01-01T18:21:22.271Z,99.90
2023-01-01T18:23:52.399Z,99.90
2023-01-01T18:26:21.078Z,99.90
2023-01-01T18:28:53.040Z,99.90
2023-01-01T18:31:20.847Z,99.90
2023-01-01T18:33:48.076Z,99.90
2023-01-01T18:36:18.508Z,99.90
2023-01-01T18:38:55.346Z,99.90
2023-01-01T18:41:55.645Z,99.90
2023-01-01T18:44:28.341Z,99.90
2023-01-01T18:47:03.925Z,99.90
2023-01-01T18:49:32.690Z,99.90
2023-01-01T18:52:16.650Z,99.90
2023-01-01T18:54:44.704Z,99.90
2023-01-01T18:57:25.253Z,99.90
2023-01-01T18:59:58.900Z,99.90
2023-01-01T19:02:28.958Z,99.90
2023-01-01T19:05:06.726Z,99.90
2023-01-01T19:07:34.416Z,99.90
2023-01-01T19:10:02.368Z,99.90
2023-01-01T19:12:29.572Z,99.90
2023-01-01T19:14:56.774Z,99.90
2023-01-01T19:17:24.115Z,99.90
2023-01-01T19:19:52.745Z,99.90
2023-01-01T19:22:33.484Z,99.90
2023-01-01T19:25:07.683Z,99.90
2023-01-01T19:27:35.837Z,99.90
2023-01-01T19:30:23.259Z,99.90
2023-01-01T19:32:51.109Z,99.90
2023-01-01T19:35:18.349Z,99.90
2023-01-01T19:37:45.574Z,99.90
2023-01-01T19:40:16.580Z,99.90
2023-01-01T19:42:43.789Z,99.90
2023-01-01T19:45:11.467Z,99.90
2023-01-01T19:47:38.949Z,99.90
2023-01-01T19:50:06.455Z,99.90
2023-01-01T19:52:33.934Z,99.90
2023-01-01T19:55:02.068Z,99.90
2023-01-01T19:57:29.723Z,99.90
2023-01-01T19:59:57.241Z,99.90
2023-01-01T20:05:12.315Z,99.90
2023-01-01T20:07:39.657Z,99.90
2023-01-01T20:10:07.253Z,99.90
2023-01-01T20:12:34.829Z,99.90
2023-01-01T20:15:02.071Z,99.90
2023-01-01T20:17:30.576Z,99.90
2023-01-01T20:19:58.481Z,99.90
2023-01-01T20:22:25.678Z,99.90
2023-01-01T20:24:52.936Z,99.90
2023-01-01T20:27:26.697Z,99.90
2023-01-01T20:29:54.371Z,99.90
2023-01-01T20:32:21.568Z,99.90
2023-01-01T20:34:48.923Z,99.90
2023-01-01T20:37:35.243Z,99.90
2023-01-01T20:40:04.532Z,99.90
2023-01-01T20:42:31.745Z,99.90
2023-01-01T20:44:58.924Z,99.90
2023-01-01T20:47:26.116Z,99.90
2023-01-01T20:49:53.285Z,99.90
2023-01-01T20:52:20.450Z,99.90
2023-01-01T20:54:48.329Z,99.90
2023-01-01T20:57:15.747Z,99.90
2023-01-01T20:59:43.133Z,99.90
2023-01-01T21:02:12.041Z,99.90
2023-01-01T21:04:40.328Z,99.90
2023-01-01T21:07:12.885Z,99.90
2023-01-01T21:09:41.051Z,99.90
2023-01-01T21:12:09.751Z,99.90
2023-01-01T21:14:42.069Z,99.90
2023-01-01T21:17:23.913Z,99.90
2023-01-01T21:19:53.593Z,99.90
2023-01-01T21:22:20.989Z,99.90
2023-01-01T21:24:53.946Z,99.90
2023-01-01T21:27:35.614Z,99.90
2023-01-01T21:30:03.345Z,99.90
2023-01-01T21:32:41.534Z,99.90
2023-01-01T21:35:30.178Z,99.90
2023-01-01T21:37:58.804Z,99.90
2023-01-01T21:40:31.189Z,99.90
2023-01-01T21:43:31.549Z,99.90
2023-01-01T21:46:24.639Z,99.90
2023-01-01T21:49:02.833Z,99.90
2023-01-01T21:51:35.842Z,99.90
2023-01-01T21:54:09.224Z,99.90
2023-01-01T21:56:41.587Z,99.90
2023-01-01T21:59:27.619Z,99.90
2023-01-01T22:02:08.631Z,99.90
2023-01-01T22:04:44.311Z,99.90
2023-01-01T22:10:21.792Z,99.90
2023-01-01T22:12:53.724Z,99.90
2023-01-01T22:15:27.342Z,99.90
2023-01-01T22:18:18.247Z,99.90
2023-01-01T22:20:46.747Z,99.90
2023-01-01T22:23:20.259Z,99.90
2023-01-01T22:25:47.780Z,99.90
2023-01-01T22:28:26.427Z,99.90
2023-01-01T22:30:57.881Z,99.90
2023-01-01T22:33:48.529Z,99.90
2023-01-01T22:36:30.037Z,99.90
2023-01-01T22:39:01.206Z,99.90
2023-01-01T22:41:29.068Z,99.90
2023-01-01T22:44:00.997Z,99.90
2023-01-01T22:46:36.680Z,99.90
2023-01-01T22:49:22.979Z,99.90
2023-01-01T22:51:54.398Z,99.90
2023-01-01T22:54:21.679Z,99.90
2023-01-01T22:56:50.058Z,99.90
2023-01-01T22:59:17.221Z,99.90
2023-01-01T23:01:44.959Z,99.90
2023-01-01T23:04:12.186Z,99.90
2023-01-01T23:06:39.992Z,99.90
2023-01-01T23:09:08.363Z,99.90
2023-01-01T23:11:35.582Z,99.90
2023-01-01T23:14:21.797Z,99.90
2023-01-01T23:16:49.711Z,99.90
2023-01-01T23:19:17.308Z,99.90
2023-01-01T23:21:45.556Z,99.90
2023-01-01T23:24:16.900Z,99.90
2023-01-01T23:26:45.214Z,99.90
2023-01-01T23:29:14.283Z,99.90
2023-01-01T23:31:42.146Z,99.90
2023-01-01T23:34:09.730Z,99.90
2023-01-01T23:36:38.462Z,99.90
2023-01-01T23:39:05.634Z,99.90
2023-01-01T23:41:32.771Z,99.90
2023-01-01T23:43:59.915Z,99.90
2023-01-01T23:46:27.513Z,99.90
2023-01-01T23:48:55.177Z,99.90
2023-01-01T23:51:22.859Z,99.90
2023-01-01T23:53:50.036Z,99.90
2023-01-01T23:56:17.259Z,99.90
2023-01-01T23:58:44.427Z,99.90
